sensor_id;sensor_type;location;lat;lon;timestamp;P1;durP1;ratioP1;P2;durP2;ratioP2
57858;SDS011;49153;45.568;11.894;2022-07-29T00:00:00;11.52;;;8.02;;
57858;SDS011;49153;45.568;11.894;2022-07-29T00:02:50;9.70;;;8.05;;
57858;SDS011;49153;45.568;11.894;2022-07-29T00:05:36;9.35;;;7.70;;
57858;SDS011;49153;45.568;11.894;2022-07-29T00:08:35;7.93;;;5.35;;
57858;SDS011;49153;45.568;11.894;2022-07-29T00:11:03;5.30;;;3.42;;
57858;SDS011;49153;45.568;11.894;2022-07-29T00:13:35;7.95;;;3.30;;
57858;SDS011;49153;45.568;11.894;2022-07-29T00:16:02;5.80;;;2.83;;
57858;SDS011;49153;45.568;11.894;2022-07-29T00:18:39;3.67;;;2.30;;
57858;SDS011;49153;45.568;11.894;2022-07-29T00:21:20;2.97;;;2.30;;
57858;SDS011;49153;45.568;11.894;2022-07-29T00:24:01;5.97;;;2.10;;
57858;SDS011;49153;45.568;11.894;2022-07-29T00:26:29;4.07;;;2.13;;
57858;SDS011;49153;45.568;11.894;2022-07-29T00:29:06;1.98;;;1.77;;
57858;SDS011;49153;45.568;11.894;2022-07-29T00:31:37;2.38;;;1.65;;
57858;SDS011;49153;45.568;11.894;2022-07-29T00:34:03;3.60;;;1.70;;
57858;SDS011;49153;45.568;11.894;2022-07-29T00:36:53;2.47;;;1.60;;
57858;SDS011;49153;45.568;11.894;2022-07-29T00:39:29;2.85;;;1.60;;
57858;SDS011;49153;45.568;11.894;2022-07-29T00:41:55;4.72;;;1.48;;
57858;SDS011;49153;45.568;11.894;2022-07-29T00:44:21;2.50;;;1.42;;
57858;SDS011;49153;45.568;11.894;2022-07-29T00:46:46;4.40;;;1.50;;
57858;SDS011;49153;45.568;11.894;2022-07-29T00:49:12;1.90;;;1.35;;
57858;SDS011;49153;45.568;11.894;2022-07-29T00:51:38;1.70;;;1.30;;
57858;SDS011;49153;45.568;11.894;2022-07-29T00:54:04;1.85;;;1.50;;
57858;SDS011;49153;45.568;11.894;2022-07-29T00:56:31;2.40;;;1.60;;
57858;SDS011;49153;45.568;11.894;2022-07-29T00:58:57;4.18;;;1.60;;
57858;SDS011;49153;45.568;11.894;2022-07-29T01:01:23;1.83;;;1.60;;
57858;SDS011;49153;45.568;11.894;2022-07-29T01:03:49;1.75;;;1.45;;
57858;SDS011;49153;45.568;11.894;2022-07-29T01:06:18;2.65;;;1.55;;
57858;SDS011;49153;45.568;11.894;2022-07-29T01:08:44;3.00;;;1.50;;
57858;SDS011;49153;45.568;11.894;2022-07-29T01:11:12;1.77;;;1.30;;
57858;SDS011;49153;45.568;11.894;2022-07-29T01:13:39;1.95;;;1.50;;
57858;SDS011;49153;45.568;11.894;2022-07-29T01:16:09;1.52;;;1.30;;
57858;SDS011;49153;45.568;11.894;2022-07-29T01:18:42;1.73;;;1.35;;
57858;SDS011;49153;45.568;11.894;2022-07-29T01:21:27;3.35;;;1.50;;
57858;SDS011;49153;45.568;11.894;2022-07-29T01:24:14;1.58;;;1.27;;
57858;SDS011;49153;45.568;11.894;2022-07-29T01:27:06;1.85;;;1.38;;
57858;SDS011;49153;45.568;11.894;2022-07-29T01:29:59;2.33;;;1.40;;
57858;SDS011;49153;45.568;11.894;2022-07-29T01:32:31;1.80;;;1.33;;
57858;SDS011;49153;45.568;11.894;2022-07-29T01:35:17;1.95;;;1.50;;
57858;SDS011;49153;45.568;11.894;2022-07-29T01:37:50;2.30;;;1.50;;
57858;SDS011;49153;45.568;11.894;2022-07-29T01:40:35;1.60;;;1.45;;
57858;SDS011;49153;45.568;11.894;2022-07-29T01:43:55;1.90;;;1.67;;
57858;SDS011;49153;45.568;11.894;2022-07-29T01:46:31;1.50;;;1.40;;
57858;SDS011;49153;45.568;11.894;2022-07-29T01:52:23;2.25;;;1.70;;
57858;SDS011;49153;45.568;11.894;2022-07-29T01:55:29;2.15;;;1.60;;
57858;SDS011;49153;45.568;11.894;2022-07-29T01:58:35;3.10;;;1.80;;
57858;SDS011;49153;45.568;11.894;2022-07-29T02:01:22;1.83;;;1.50;;
57858;SDS011;49153;45.568;11.894;2022-07-29T02:04:03;2.85;;;1.80;;
57858;SDS011;49153;45.568;11.894;2022-07-29T02:07:22;2.20;;;1.88;;
57858;SDS011;49153;45.568;11.894;2022-07-29T02:10:31;3.38;;;2.00;;
57858;SDS011;49153;45.568;11.894;2022-07-29T02:16:09;3.10;;;1.73;;
57858;SDS011;49153;45.568;11.894;2022-07-29T02:19:21;2.17;;;1.98;;
57858;SDS011;49153;45.568;11.894;2022-07-29T02:21:59;3.65;;;2.10;;
57858;SDS011;49153;45.568;11.894;2022-07-29T02:25:18;2.17;;;1.88;;
57858;SDS011;49153;45.568;11.894;2022-07-29T02:30:59;2.67;;;1.90;;
57858;SDS011;49153;45.568;11.894;2022-07-29T02:33:37;2.88;;;1.90;;
57858;SDS011;49153;45.568;11.894;2022-07-29T02:36:28;2.00;;;1.55;;
57858;SDS011;49153;45.568;11.894;2022-07-29T02:39:35;2.47;;;1.60;;
57858;SDS011;49153;45.568;11.894;2022-07-29T02:42:21;2.13;;;1.63;;
57858;SDS011;49153;45.568;11.894;2022-07-29T02:45:09;2.30;;;1.83;;
57858;SDS011;49153;45.568;11.894;2022-07-29T02:53:19;2.30;;;1.58;;
57858;SDS011;49153;45.568;11.894;2022-07-29T02:55:56;2.63;;;1.70;;
57858;SDS011;49153;45.568;11.894;2022-07-29T02:58:46;2.58;;;1.73;;
57858;SDS011;49153;45.568;11.894;2022-07-29T03:01:24;1.83;;;1.70;;
57858;SDS011;49153;45.568;11.894;2022-07-29T03:04:23;1.70;;;1.55;;
57858;SDS011;49153;45.568;11.894;2022-07-29T03:07:15;2.05;;;1.70;;
57858;SDS011;49153;45.568;11.894;2022-07-29T03:10:27;1.90;;;1.70;;
57858;SDS011;49153;45.568;11.894;2022-07-29T03:13:23;2.40;;;1.58;;
57858;SDS011;49153;45.568;11.894;2022-07-29T03:16:29;1.63;;;1.52;;
57858;SDS011;49153;45.568;11.894;2022-07-29T03:19:18;2.83;;;1.67;;
57858;SDS011;49153;45.568;11.894;2022-07-29T03:21:55;2.58;;;1.67;;
57858;SDS011;49153;45.568;11.894;2022-07-29T03:24:45;2.08;;;1.70;;
57858;SDS011;49153;45.568;11.894;2022-07-29T03:27:18;2.00;;;1.80;;
57858;SDS011;49153;45.568;11.894;2022-07-29T03:30:11;2.00;;;1.60;;
57858;SDS011;49153;45.568;11.894;2022-07-29T03:37:00;1.70;;;1.52;;
57858;SDS011;49153;45.568;11.894;2022-07-29T03:40:18;2.03;;;1.70;;
57858;SDS011;49153;45.568;11.894;2022-07-29T03:43:09;3.35;;;1.90;;
57858;SDS011;49153;45.568;11.894;2022-07-29T03:46:20;2.13;;;1.55;;
57858;SDS011;49153;45.568;11.894;2022-07-29T03:49:21;3.22;;;1.67;;
57858;SDS011;49153;45.568;11.894;2022-07-29T03:52:14;1.90;;;1.67;;
57858;SDS011;49153;45.568;11.894;2022-07-29T03:55:44;3.22;;;2.10;;
57858;SDS011;49153;45.568;11.894;2022-07-29T03:58:50;3.00;;;1.80;;
57858;SDS011;49153;45.568;11.894;2022-07-29T04:01:33;2.38;;;1.90;;
57858;SDS011;49153;45.568;11.894;2022-07-29T04:04:27;2.92;;;1.90;;
57858;SDS011;49153;45.568;11.894;2022-07-29T04:06:58;2.60;;;2.05;;
57858;SDS011;49153;45.568;11.894;2022-07-29T04:09:25;2.63;;;2.15;;
57858;SDS011;49153;45.568;11.894;2022-07-29T04:12:11;5.03;;;2.00;;
57858;SDS011;49153;45.568;11.894;2022-07-29T04:14:45;5.25;;;2.15;;
57858;SDS011;49153;45.568;11.894;2022-07-29T04:17:16;4.03;;;2.25;;
57858;SDS011;49153;45.568;11.894;2022-07-29T04:20:09;2.67;;;2.13;;
57858;SDS011;49153;45.568;11.894;2022-07-29T04:22:56;3.17;;;2.35;;
57858;SDS011;49153;45.568;11.894;2022-07-29T04:25:25;2.75;;;2.45;;
57858;SDS011;49153;45.568;11.894;2022-07-29T04:28:13;3.85;;;2.30;;
57858;SDS011;49153;45.568;11.894;2022-07-29T04:34:17;3.10;;;2.10;;
57858;SDS011;49153;45.568;11.894;2022-07-29T04:37:07;2.85;;;2.13;;
57858;SDS011;49153;45.568;11.894;2022-07-29T04:39:58;3.60;;;2.60;;
57858;SDS011;49153;45.568;11.894;2022-07-29T04:42:53;5.20;;;2.33;;
57858;SDS011;49153;45.568;11.894;2022-07-29T04:45:25;6.20;;;2.75;;
57858;SDS011;49153;45.568;11.894;2022-07-29T04:47:51;4.32;;;2.65;;
57858;SDS011;49153;45.568;11.894;2022-07-29T04:50:57;6.45;;;2.90;;
57858;SDS011;49153;45.568;11.894;2022-07-29T04:53:54;4.43;;;2.70;;
57858;SDS011;49153;45.568;11.894;2022-07-29T04:57:05;4.43;;;3.42;;
57858;SDS011;49153;45.568;11.894;2022-07-29T05:00:19;8.40;;;3.60;;
57858;SDS011;49153;45.568;11.894;2022-07-29T05:06:30;6.35;;;3.92;;
57858;SDS011;49153;45.568;11.894;2022-07-29T05:09:04;5.28;;;3.70;;
57858;SDS011;49153;45.568;11.894;2022-07-29T05:11:45;6.68;;;3.65;;
57858;SDS011;49153;45.568;11.894;2022-07-29T05:14:15;6.13;;;3.75;;
57858;SDS011;49153;45.568;11.894;2022-07-29T05:16:57;5.68;;;3.45;;
57858;SDS011;49153;45.568;11.894;2022-07-29T05:19:23;5.22;;;3.60;;
57858;SDS011;49153;45.568;11.894;2022-07-29T05:21:57;4.75;;;3.38;;
57858;SDS011;49153;45.568;11.894;2022-07-29T05:24:25;8.27;;;3.30;;
57858;SDS011;49153;45.568;11.894;2022-07-29T05:27:10;6.15;;;4.82;;
57858;SDS011;49153;45.568;11.894;2022-07-29T05:32:36;5.18;;;4.40;;
57858;SDS011;49153;45.568;11.894;2022-07-29T05:35:01;8.43;;;5.35;;
57858;SDS011;49153;45.568;11.894;2022-07-29T05:37:31;7.03;;;5.30;;
57858;SDS011;49153;45.568;11.894;2022-07-29T05:39:59;7.30;;;4.70;;
57858;SDS011;49153;45.568;11.894;2022-07-29T05:42:30;6.95;;;5.25;;
57858;SDS011;49153;45.568;11.894;2022-07-29T05:45:19;7.75;;;5.03;;
57858;SDS011;49153;45.568;11.894;2022-07-29T05:48:05;6.32;;;4.53;;
57858;SDS011;49153;45.568;11.894;2022-07-29T05:50:56;7.93;;;4.60;;
57858;SDS011;49153;45.568;11.894;2022-07-29T05:53:26;7.47;;;4.78;;
57858;SDS011;49153;45.568;11.894;2022-07-29T05:55:52;5.75;;;4.78;;
57858;SDS011;49153;45.568;11.894;2022-07-29T05:58:23;4.10;;;3.58;;
57858;SDS011;49153;45.568;11.894;2022-07-29T06:00:51;5.97;;;4.50;;
57858;SDS011;49153;45.568;11.894;2022-07-29T06:03:24;7.32;;;4.85;;
57858;SDS011;49153;45.568;11.894;2022-07-29T06:05:51;5.57;;;4.20;;
57858;SDS011;49153;45.568;11.894;2022-07-29T06:08:18;6.38;;;3.60;;
57858;SDS011;49153;45.568;11.894;2022-07-29T06:10:45;4.57;;;3.50;;
57858;SDS011;49153;45.568;11.894;2022-07-29T06:13:12;5.10;;;3.40;;
57858;SDS011;49153;45.568;11.894;2022-07-29T06:15:43;3.75;;;3.30;;
57858;SDS011;49153;45.568;11.894;2022-07-29T06:18:13;6.15;;;3.78;;
57858;SDS011;49153;45.568;11.894;2022-07-29T06:20:40;5.63;;;4.33;;
57858;SDS011;49153;45.568;11.894;2022-07-29T06:23:15;8.63;;;4.18;;
57858;SDS011;49153;45.568;11.894;2022-07-29T06:26:15;5.05;;;3.97;;
57858;SDS011;49153;45.568;11.894;2022-07-29T06:29:01;4.13;;;3.50;;
57858;SDS011;49153;45.568;11.894;2022-07-29T06:31:37;5.38;;;3.63;;
57858;SDS011;49153;45.568;11.894;2022-07-29T06:35:13;5.15;;;3.80;;
57858;SDS011;49153;45.568;11.894;2022-07-29T06:38:14;4.82;;;3.72;;
57858;SDS011;49153;45.568;11.894;2022-07-29T06:41:02;4.40;;;4.00;;
57858;SDS011;49153;45.568;11.894;2022-07-29T06:43:35;5.75;;;4.22;;
57858;SDS011;49153;45.568;11.894;2022-07-29T06:46:15;5.95;;;4.15;;
57858;SDS011;49153;45.568;11.894;2022-07-29T06:49:06;4.95;;;4.43;;
57858;SDS011;49153;45.568;11.894;2022-07-29T06:52:38;6.22;;;4.10;;
57858;SDS011;49153;45.568;11.894;2022-07-29T06:55:30;4.30;;;3.83;;
57858;SDS011;49153;45.568;11.894;2022-07-29T06:58:39;4.30;;;3.90;;
57858;SDS011;49153;45.568;11.894;2022-07-29T07:01:32;6.38;;;3.80;;
57858;SDS011;49153;45.568;11.894;2022-07-29T07:04:42;5.10;;;4.10;;
57858;SDS011;49153;45.568;11.894;2022-07-29T07:07:53;4.68;;;4.07;;
57858;SDS011;49153;45.568;11.894;2022-07-29T07:10:39;5.28;;;4.18;;
57858;SDS011;49153;45.568;11.894;2022-07-29T07:13:46;4.20;;;3.80;;
57858;SDS011;49153;45.568;11.894;2022-07-29T07:16:15;5.65;;;4.32;;
57858;SDS011;49153;45.568;11.894;2022-07-29T07:19:03;5.22;;;3.90;;
57858;SDS011;49153;45.568;11.894;2022-07-29T07:21:54;4.47;;;4.03;;
57858;SDS011;49153;45.568;11.894;2022-07-29T07:24:43;5.18;;;4.28;;
57858;SDS011;49153;45.568;11.894;2022-07-29T07:27:39;6.13;;;4.40;;
57858;SDS011;49153;45.568;11.894;2022-07-29T07:30:10;4.20;;;3.80;;
57858;SDS011;49153;45.568;11.894;2022-07-29T07:32:57;4.60;;;3.83;;
57858;SDS011;49153;45.568;11.894;2022-07-29T07:35:45;4.88;;;3.90;;
57858;SDS011;49153;45.568;11.894;2022-07-29T07:38:16;4.78;;;4.10;;
57858;SDS011;49153;45.568;11.894;2022-07-29T07:40:51;4.63;;;3.95;;
57858;SDS011;49153;45.568;11.894;2022-07-29T07:43:41;4.82;;;4.10;;
57858;SDS011;49153;45.568;11.894;2022-07-29T07:46:50;4.90;;;3.75;;
57858;SDS011;49153;45.568;11.894;2022-07-29T07:49:25;4.18;;;3.60;;
57858;SDS011;49153;45.568;11.894;2022-07-29T07:52:30;5.45;;;3.90;;
57858;SDS011;49153;45.568;11.894;2022-07-29T07:55:13;5.75;;;3.83;;
57858;SDS011;49153;45.568;11.894;2022-07-29T07:58:24;4.95;;;3.63;;
57858;SDS011;49153;45.568;11.894;2022-07-29T08:01:02;5.53;;;3.70;;
57858;SDS011;49153;45.568;11.894;2022-07-29T08:03:34;6.00;;;3.58;;
57858;SDS011;49153;45.568;11.894;2022-07-29T08:07:02;3.55;;;3.00;;
57858;SDS011;49153;45.568;11.894;2022-07-29T08:09:28;3.85;;;3.33;;
57858;SDS011;49153;45.568;11.894;2022-07-29T08:11:54;4.05;;;3.75;;
57858;SDS011;49153;45.568;11.894;2022-07-29T08:14:20;4.93;;;3.63;;
57858;SDS011;49153;45.568;11.894;2022-07-29T08:16:46;4.60;;;3.78;;
57858;SDS011;49153;45.568;11.894;2022-07-29T08:19:11;4.22;;;3.83;;
57858;SDS011;49153;45.568;11.894;2022-07-29T08:21:37;4.53;;;4.00;;
57858;SDS011;49153;45.568;11.894;2022-07-29T08:24:03;4.40;;;4.00;;
57858;SDS011;49153;45.568;11.894;2022-07-29T08:26:47;5.47;;;4.03;;
57858;SDS011;49153;45.568;11.894;2022-07-29T08:29:13;4.95;;;3.80;;
57858;SDS011;49153;45.568;11.894;2022-07-29T08:31:38;4.53;;;3.80;;
57858;SDS011;49153;45.568;11.894;2022-07-29T08:34:05;4.47;;;3.80;;
57858;SDS011;49153;45.568;11.894;2022-07-29T08:36:32;4.45;;;3.75;;
57858;SDS011;49153;45.568;11.894;2022-07-29T08:38:58;5.38;;;4.05;;
57858;SDS011;49153;45.568;11.894;2022-07-29T08:41:24;4.70;;;3.95;;
57858;SDS011;49153;45.568;11.894;2022-07-29T08:43:50;5.18;;;3.85;;
57858;SDS011;49153;45.568;11.894;2022-07-29T08:46:17;5.15;;;3.92;;
57858;SDS011;49153;45.568;11.894;2022-07-29T08:48:43;5.80;;;4.00;;
57858;SDS011;49153;45.568;11.894;2022-07-29T08:51:08;5.13;;;4.40;;
57858;SDS011;49153;45.568;11.894;2022-07-29T08:53:39;4.88;;;3.83;;
57858;SDS011;49153;45.568;11.894;2022-07-29T08:56:07;4.50;;;4.10;;
57858;SDS011;49153;45.568;11.894;2022-07-29T08:58:36;4.40;;;3.72;;
57858;SDS011;49153;45.568;11.894;2022-07-29T09:01:01;4.07;;;3.65;;
57858;SDS011;49153;45.568;11.894;2022-07-29T09:03:31;4.63;;;3.67;;
57858;SDS011;49153;45.568;11.894;2022-07-29T09:05:58;4.50;;;4.03;;
57858;SDS011;49153;45.568;11.894;2022-07-29T09:08:24;4.65;;;3.75;;
57858;SDS011;49153;45.568;11.894;2022-07-29T09:10:50;4.55;;;3.97;;
57858;SDS011;49153;45.568;11.894;2022-07-29T09:13:16;4.82;;;4.00;;
57858;SDS011;49153;45.568;11.894;2022-07-29T09:15:42;4.22;;;3.75;;
57858;SDS011;49153;45.568;11.894;2022-07-29T09:18:08;4.90;;;3.88;;
57858;SDS011;49153;45.568;11.894;2022-07-29T09:20:34;4.15;;;3.70;;
57858;SDS011;49153;45.568;11.894;2022-07-29T09:23:18;7.45;;;3.63;;
57858;SDS011;49153;45.568;11.894;2022-07-29T09:25:44;5.70;;;4.18;;
57858;SDS011;49153;45.568;11.894;2022-07-29T09:28:10;4.32;;;3.72;;
57858;SDS011;49153;45.568;11.894;2022-07-29T09:30:53;5.18;;;4.30;;
57858;SDS011;49153;45.568;11.894;2022-07-29T09:33:20;4.18;;;3.75;;
57858;SDS011;49153;45.568;11.894;2022-07-29T09:35:58;5.15;;;3.92;;
57858;SDS011;49153;45.568;11.894;2022-07-29T09:38:31;5.00;;;4.25;;
57858;SDS011;49153;45.568;11.894;2022-07-29T09:41:01;5.93;;;4.20;;
57858;SDS011;49153;45.568;11.894;2022-07-29T09:43:27;5.10;;;3.83;;
57858;SDS011;49153;45.568;11.894;2022-07-29T09:45:53;4.45;;;3.85;;
57858;SDS011;49153;45.568;11.894;2022-07-29T09:48:20;5.90;;;4.35;;
57858;SDS011;49153;45.568;11.894;2022-07-29T09:50:47;4.40;;;4.00;;
57858;SDS011;49153;45.568;11.894;2022-07-29T09:56:02;4.13;;;3.60;;
57858;SDS011;49153;45.568;11.894;2022-07-29T09:58:31;4.13;;;3.70;;
57858;SDS011;49153;45.568;11.894;2022-07-29T10:00:59;6.25;;;3.83;;
57858;SDS011;49153;45.568;11.894;2022-07-29T10:03:25;7.97;;;4.00;;
57858;SDS011;49153;45.568;11.894;2022-07-29T10:06:12;6.35;;;3.95;;
57858;SDS011;49153;45.568;11.894;2022-07-29T10:09:18;5.20;;;3.72;;
57858;SDS011;49153;45.568;11.894;2022-07-29T10:12:12;5.97;;;3.83;;
57858;SDS011;49153;45.568;11.894;2022-07-29T10:15:02;4.77;;;3.63;;
57858;SDS011;49153;45.568;11.894;2022-07-29T10:17:55;4.47;;;3.75;;
57858;SDS011;49153;45.568;11.894;2022-07-29T10:20:54;4.20;;;3.85;;
57858;SDS011;49153;45.568;11.894;2022-07-29T10:23:46;4.07;;;3.67;;
57858;SDS011;49153;45.568;11.894;2022-07-29T10:26:55;4.93;;;3.60;;
57858;SDS011;49153;45.568;11.894;2022-07-29T10:30:14;3.38;;;3.08;;
57858;SDS011;49153;45.568;11.894;2022-07-29T10:38:36;5.53;;;3.65;;
57858;SDS011;49153;45.568;11.894;2022-07-29T10:41:28;5.50;;;3.05;;
57858;SDS011;49153;45.568;11.894;2022-07-29T10:46:26;4.88;;;3.50;;
57858;SDS011;49153;45.568;11.894;2022-07-29T10:49:09;4.63;;;3.58;;
57858;SDS011;49153;45.568;11.894;2022-07-29T10:51:54;4.07;;;3.70;;
57858;SDS011;49153;45.568;11.894;2022-07-29T10:59:43;3.95;;;3.20;;
57858;SDS011;49153;45.568;11.894;2022-07-29T11:05:19;6.75;;;3.22;;
57858;SDS011;49153;45.568;11.894;2022-07-29T11:10:45;3.50;;;3.13;;
57858;SDS011;49153;45.568;11.894;2022-07-29T11:13:10;3.40;;;3.10;;
57858;SDS011;49153;45.568;11.894;2022-07-29T11:15:55;4.28;;;3.28;;
57858;SDS011;49153;45.568;11.894;2022-07-29T11:18:22;4.57;;;3.35;;
57858;SDS011;49153;45.568;11.894;2022-07-29T11:20:48;4.78;;;3.60;;
57858;SDS011;49153;45.568;11.894;2022-07-29T11:23:25;3.30;;;2.97;;
57858;SDS011;49153;45.568;11.894;2022-07-29T11:26:35;3.85;;;3.20;;
57858;SDS011;49153;45.568;11.894;2022-07-29T11:28:54;3.95;;;3.05;;
57858;SDS011;49153;45.568;11.894;2022-07-29T11:31:41;3.38;;;3.08;;
57858;SDS011;49153;45.568;11.894;2022-07-29T11:39:36;3.65;;;3.15;;
57858;SDS011;49153;45.568;11.894;2022-07-29T11:44:57;4.50;;;3.20;;
57858;SDS011;49153;45.568;11.894;2022-07-29T11:47:24;4.22;;;3.22;;
57858;SDS011;49153;45.568;11.894;2022-07-29T11:49:51;5.25;;;3.22;;
57858;SDS011;49153;45.568;11.894;2022-07-29T11:52:17;4.95;;;3.15;;
57858;SDS011;49153;45.568;11.894;2022-07-29T11:54:44;3.40;;;3.10;;
57858;SDS011;49153;45.568;11.894;2022-07-29T11:57:12;4.43;;;3.40;;
57858;SDS011;49153;45.568;11.894;2022-07-29T11:59:41;3.72;;;2.75;;
57858;SDS011;49153;45.568;11.894;2022-07-29T12:02:08;4.95;;;2.90;;
57858;SDS011;49153;45.568;11.894;2022-07-29T12:07:19;3.42;;;3.10;;
57858;SDS011;49153;45.568;11.894;2022-07-29T12:09:54;3.55;;;3.05;;
57858;SDS011;49153;45.568;11.894;2022-07-29T12:12:20;3.50;;;3.20;;
57858;SDS011;49153;45.568;11.894;2022-07-29T12:14:46;3.40;;;3.10;;
57858;SDS011;49153;45.568;11.894;2022-07-29T12:19:58;4.55;;;3.22;;
57858;SDS011;49153;45.568;11.894;2022-07-29T12:22:26;4.07;;;3.10;;
57858;SDS011;49153;45.568;11.894;2022-07-29T12:24:53;4.43;;;3.08;;
57858;SDS011;49153;45.568;11.894;2022-07-29T12:27:19;4.40;;;3.40;;
57858;SDS011;49153;45.568;11.894;2022-07-29T12:29:45;3.40;;;3.10;;
57858;SDS011;49153;45.568;11.894;2022-07-29T12:32:58;3.40;;;3.03;;
57858;SDS011;49153;45.568;11.894;2022-07-29T12:35:18;4.30;;;3.00;;
57858;SDS011;49153;45.568;11.894;2022-07-29T12:37:45;6.35;;;2.95;;
57858;SDS011;49153;45.568;11.894;2022-07-29T12:40:13;4.57;;;3.20;;
57858;SDS011;49153;45.568;11.894;2022-07-29T12:42:41;4.05;;;2.95;;
57858;SDS011;49153;45.568;11.894;2022-07-29T12:45:42;3.17;;;2.95;;
57858;SDS011;49153;45.568;11.894;2022-07-29T12:48:10;3.60;;;3.10;;
57858;SDS011;49153;45.568;11.894;2022-07-29T12:50:36;3.97;;;3.13;;
57858;SDS011;49153;45.568;11.894;2022-07-29T12:53:17;4.22;;;3.20;;
57858;SDS011;49153;45.568;11.894;2022-07-29T12:55:46;3.45;;;3.15;;
57858;SDS011;49153;45.568;11.894;2022-07-29T12:58:29;3.60;;;2.80;;
57858;SDS011;49153;45.568;11.894;2022-07-29T13:01:00;3.30;;;3.00;;
57858;SDS011;49153;45.568;11.894;2022-07-29T13:03:27;3.88;;;2.92;;
57858;SDS011;49153;45.568;11.894;2022-07-29T13:05:52;3.78;;;3.03;;
57858;SDS011;49153;45.568;11.894;2022-07-29T13:08:18;4.65;;;3.05;;
57858;SDS011;49153;45.568;11.894;2022-07-29T13:10:44;3.90;;;3.03;;
57858;SDS011;49153;45.568;11.894;2022-07-29T13:13:11;3.22;;;2.92;;
57858;SDS011;49153;45.568;11.894;2022-07-29T13:15:39;3.67;;;3.10;;
57858;SDS011;49153;45.568;11.894;2022-07-29T13:18:26;4.90;;;3.13;;
57858;SDS011;49153;45.568;11.894;2022-07-29T13:21:11;4.80;;;2.85;;
57858;SDS011;49153;45.568;11.894;2022-07-29T13:23:41;3.90;;;3.22;;
57858;SDS011;49153;45.568;11.894;2022-07-29T13:26:10;4.05;;;3.25;;
57858;SDS011;49153;45.568;11.894;2022-07-29T13:28:36;3.05;;;2.83;;
57858;SDS011;49153;45.568;11.894;2022-07-29T13:31:02;6.10;;;2.85;;
57858;SDS011;49153;45.568;11.894;2022-07-29T13:33:29;5.45;;;2.78;;
57858;SDS011;49153;45.568;11.894;2022-07-29T13:35:55;3.53;;;3.22;;
57858;SDS011;49153;45.568;11.894;2022-07-29T13:38:20;3.80;;;3.08;;
57858;SDS011;49153;45.568;11.894;2022-07-29T13:40:46;4.25;;;3.25;;
57858;SDS011;49153;45.568;11.894;2022-07-29T13:43:12;4.60;;;3.05;;
57858;SDS011;49153;45.568;11.894;2022-07-29T13:45:37;3.38;;;3.03;;
57858;SDS011;49153;45.568;11.894;2022-07-29T13:48:03;3.75;;;3.03;;
57858;SDS011;49153;45.568;11.894;2022-07-29T13:50:29;7.05;;;3.30;;
57858;SDS011;49153;45.568;11.894;2022-07-29T13:52:55;4.28;;;3.38;;
57858;SDS011;49153;45.568;11.894;2022-07-29T13:55:20;3.50;;;3.00;;
57858;SDS011;49153;45.568;11.894;2022-07-29T13:57:46;2.65;;;2.45;;
57858;SDS011;49153;45.568;11.894;2022-07-29T14:00:12;4.43;;;3.10;;
57858;SDS011;49153;45.568;11.894;2022-07-29T14:02:38;3.50;;;3.05;;
57858;SDS011;49153;45.568;11.894;2022-07-29T14:05:05;4.13;;;2.85;;
57858;SDS011;49153;45.568;11.894;2022-07-29T14:07:31;3.28;;;2.97;;
57858;SDS011;49153;45.568;11.894;2022-07-29T14:09:56;3.53;;;3.00;;
57858;SDS011;49153;45.568;11.894;2022-07-29T14:12:22;3.45;;;3.15;;
57858;SDS011;49153;45.568;11.894;2022-07-29T14:14:48;3.42;;;3.08;;
57858;SDS011;49153;45.568;11.894;2022-07-29T14:17:14;5.72;;;2.80;;
57858;SDS011;49153;45.568;11.894;2022-07-29T14:19:40;3.20;;;2.83;;
57858;SDS011;49153;45.568;11.894;2022-07-29T14:22:06;3.42;;;3.10;;
57858;SDS011;49153;45.568;11.894;2022-07-29T14:24:33;3.42;;;3.13;;
57858;SDS011;49153;45.568;11.894;2022-07-29T14:26:59;4.45;;;3.35;;
57858;SDS011;49153;45.568;11.894;2022-07-29T14:29:24;3.47;;;3.10;;
57858;SDS011;49153;45.568;11.894;2022-07-29T14:31:50;3.33;;;2.97;;
57858;SDS011;49153;45.568;11.894;2022-07-29T14:34:15;3.30;;;3.00;;
57858;SDS011;49153;45.568;11.894;2022-07-29T14:36:41;3.90;;;3.08;;
57858;SDS011;49153;45.568;11.894;2022-07-29T14:39:07;3.65;;;3.35;;
57858;SDS011;49153;45.568;11.894;2022-07-29T14:41:32;5.60;;;3.17;;
57858;SDS011;49153;45.568;11.894;2022-07-29T14:43:57;3.38;;;3.08;;
57858;SDS011;49153;45.568;11.894;2022-07-29T14:46:25;3.38;;;3.08;;
57858;SDS011;49153;45.568;11.894;2022-07-29T14:48:51;4.68;;;3.70;;
57858;SDS011;49153;45.568;11.894;2022-07-29T14:51:17;4.85;;;3.58;;
57858;SDS011;49153;45.568;11.894;2022-07-29T14:53:42;3.75;;;3.40;;
57858;SDS011;49153;45.568;11.894;2022-07-29T14:56:08;4.72;;;3.38;;
57858;SDS011;49153;45.568;11.894;2022-07-29T14:58:34;3.80;;;3.40;;
57858;SDS011;49153;45.568;11.894;2022-07-29T15:00:59;3.75;;;3.20;;
57858;SDS011;49153;45.568;11.894;2022-07-29T15:03:25;4.88;;;3.67;;
57858;SDS011;49153;45.568;11.894;2022-07-29T15:05:52;3.80;;;3.20;;
57858;SDS011;49153;45.568;11.894;2022-07-29T15:08:18;5.50;;;3.88;;
57858;SDS011;49153;45.568;11.894;2022-07-29T15:10:43;4.93;;;3.40;;
57858;SDS011;49153;45.568;11.894;2022-07-29T15:13:09;4.03;;;3.22;;
57858;SDS011;49153;45.568;11.894;2022-07-29T15:15:34;13.55;;;3.70;;
57858;SDS011;49153;45.568;11.894;2022-07-29T15:18:00;4.50;;;3.47;;
57858;SDS011;49153;45.568;11.894;2022-07-29T15:20:25;3.90;;;3.42;;
57858;SDS011;49153;45.568;11.894;2022-07-29T15:22:52;4.40;;;3.30;;
57858;SDS011;49153;45.568;11.894;2022-07-29T15:25:18;4.43;;;3.80;;
57858;SDS011;49153;45.568;11.894;2022-07-29T15:27:44;4.60;;;3.60;;
57858;SDS011;49153;45.568;11.894;2022-07-29T15:30:09;14.52;;;4.10;;
57858;SDS011;49153;45.568;11.894;2022-07-29T15:32:35;3.70;;;3.25;;
57858;SDS011;49153;45.568;11.894;2022-07-29T15:35:01;4.25;;;3.65;;
57858;SDS011;49153;45.568;11.894;2022-07-29T15:37:27;3.78;;;3.47;;
57858;SDS011;49153;45.568;11.894;2022-07-29T15:39:53;4.22;;;3.70;;
57858;SDS011;49153;45.568;11.894;2022-07-29T15:42:19;3.78;;;3.40;;
57858;SDS011;49153;45.568;11.894;2022-07-29T15:44:44;4.97;;;3.90;;
57858;SDS011;49153;45.568;11.894;2022-07-29T15:47:10;5.00;;;3.60;;
57858;SDS011;49153;45.568;11.894;2022-07-29T15:49:36;5.32;;;3.70;;
57858;SDS011;49153;45.568;11.894;2022-07-29T15:52:03;5.13;;;3.65;;
57858;SDS011;49153;45.568;11.894;2022-07-29T15:54:34;6.25;;;4.03;;
57858;SDS011;49153;45.568;11.894;2022-07-29T15:57:01;4.93;;;3.90;;
57858;SDS011;49153;45.568;11.894;2022-07-29T15:59:27;4.85;;;3.83;;
57858;SDS011;49153;45.568;11.894;2022-07-29T16:01:53;5.28;;;3.65;;
57858;SDS011;49153;45.568;11.894;2022-07-29T16:04:20;6.38;;;3.92;;
57858;SDS011;49153;45.568;11.894;2022-07-29T16:06:46;6.30;;;3.65;;
57858;SDS011;49153;45.568;11.894;2022-07-29T16:09:13;4.10;;;3.70;;
57858;SDS011;49153;45.568;11.894;2022-07-29T16:11:39;4.30;;;3.90;;
57858;SDS011;49153;45.568;11.894;2022-07-29T16:14:05;4.63;;;3.78;;
57858;SDS011;49153;45.568;11.894;2022-07-29T16:16:31;4.15;;;3.45;;
57858;SDS011;49153;45.568;11.894;2022-07-29T16:18:56;4.35;;;3.78;;
57858;SDS011;49153;45.568;11.894;2022-07-29T16:21:22;5.78;;;3.60;;
57858;SDS011;49153;45.568;11.894;2022-07-29T16:23:48;6.07;;;3.60;;
57858;SDS011;49153;45.568;11.894;2022-07-29T16:26:13;4.25;;;3.63;;
57858;SDS011;49153;45.568;11.894;2022-07-29T16:28:39;5.00;;;3.70;;
57858;SDS011;49153;45.568;11.894;2022-07-29T16:31:05;5.20;;;3.65;;
57858;SDS011;49153;45.568;11.894;2022-07-29T16:33:30;7.75;;;3.88;;